KESN

Easton / Newnam Field Airport

Easton, Maryland, USA
METAR KESN 241153Z 00000KT 1/2SM FG OVC001 10/09 A3021
Observed Flight Rules
Feb-24 @ 11:53 UTC (31 minutes ago) Instrument Flight Rules
Wind Visibility Clouds Conditions
Calm 1/2 miles
  • Overcast at 100' AGL
  • Fog
Temperatures Readings
Current 10°C / 50°F
Dewpoint 9°C / 48°F
Humidity 94%
Altimeter 30.21" Hg
Pressure 1023 hPa
Elevation 22
METAR KESN 241153Z 00000KT 1/2SM FG OVC001 10/09 A3021
Observed Flight Rules
Feb-24 @ 11:53 UTC
(31 minutes ago)
LIFR
Wind Visibility
Calm 1/2 miles
Clouds
  • Overcast at 100' AGL
Conditions
  • Fog
Temperature Dewpoint
10°C / 50°F 9°C / 48°F
Humidity Altimeter Pressure
94% 30.21" Hg 1023 hPa